Time;durP1;ratioP1;P1;durP2;ratioP2;P2;SDS_P1;SDS_P2;PMS_P1;PMS_P2;Temp;Humidity;BMP_temperature;BMP_pressure;BME280_temperature;BME280_humidity;BME280_pressure;Samples;Min_cycle;Max_cycle;Signal;HPM_P1;HPM_P2
2023/07/19 00:00:37;;;;;;;6.05;3.38;;;19.10;99.90;;;;;;4937770;29;20184;-76
2023/07/19 00:03:03;;;;;;;7.85;3.53;;;19.10;99.90;;;;;;4937074;29;20190;-75
2023/07/19 00:05:29;;;;;;;6.28;3.67;;;19.10;99.90;;;;;;4921249;29;20194;-75
2023/07/19 00:07:55;;;;;;;8.30;3.75;;;19.00;99.90;;;;;;4937475;29;20588;-76
2023/07/19 00:10:21;;;;;;;6.38;3.78;;;19.00;99.90;;;;;;4937645;29;20179;-74
2023/07/19 00:12:47;;;;;;;6.03;3.33;;;19.00;99.90;;;;;;4937940;29;20178;-74
2023/07/19 00:15:13;;;;;;;7.43;3.65;;;19.00;99.90;;;;;;4937864;29;20191;-76
2023/07/19 00:17:38;;;;;;;6.68;3.30;;;19.00;99.90;;;;;;4937465;29;20186;-75
2023/07/19 00:20:05;;;;;;;5.68;3.50;;;19.00;99.90;;;;;;4938380;29;20274;-76
2023/07/19 00:22:32;;;;;;;7.22;3.70;;;19.00;99.90;;;;;;4937920;29;20189;-75
2023/07/19 00:24:58;;;;;;;5.70;3.70;;;19.00;99.90;;;;;;4936745;29;20188;-74
2023/07/19 00:27:24;;;;;;;6.38;3.50;;;19.00;99.90;;;;;;4936330;29;20270;-76
2023/07/19 00:29:50;;;;;;;8.70;3.60;;;19.00;99.90;;;;;;4937811;29;20695;-75
2023/07/19 00:32:17;;;;;;;9.00;4.20;;;19.00;99.90;;;;;;4936485;29;20275;-75
2023/07/19 00:34:43;;;;;;;6.75;3.72;;;19.00;99.90;;;;;;4936340;29;20254;-75
2023/07/19 00:37:09;;;;;;;9.10;4.20;;;19.00;99.90;;;;;;4921335;29;20238;-75
2023/07/19 00:39:34;;;;;;;9.38;3.97;;;19.00;99.90;;;;;;4921418;29;20632;-75
2023/07/19 00:42:01;;;;;;;8.43;4.00;;;19.00;99.90;;;;;;4938094;29;20617;-74
2023/07/19 00:44:27;;;;;;;6.90;3.75;;;19.00;99.90;;;;;;4937634;29;20175;-77
2023/07/19 00:46:53;;;;;;;7.75;4.57;;;19.00;99.90;;;;;;4938022;29;20190;-75
2023/07/19 00:49:19;;;;;;;8.18;4.70;;;18.90;99.90;;;;;;4936228;29;20227;-78
2023/07/19 00:51:45;;;;;;;10.80;4.22;;;18.90;99.90;;;;;;4937695;29;20187;-74
2023/07/19 00:54:11;;;;;;;6.95;3.92;;;18.90;99.90;;;;;;4938123;29;20318;-75
2023/07/19 00:56:40;;;;;;;10.48;4.40;;;18.90;99.90;;;;;;4936438;29;20644;-74
2023/07/19 00:59:07;;;;;;;9.90;4.28;;;18.90;99.90;;;;;;4936179;29;20194;-78
2023/07/19 01:01:34;;;;;;;8.70;4.70;;;19.00;99.90;;;;;;4937481;29;20183;-77
2023/07/19 01:04:00;;;;;;;9.00;4.68;;;18.90;99.90;;;;;;4936954;29;20187;-74
2023/07/19 01:06:26;;;;;;;8.13;4.57;;;18.90;99.90;;;;;;4937732;29;20187;-74
2023/07/19 01:08:52;;;;;;;7.70;4.55;;;18.90;99.90;;;;;;4936104;29;20246;-75
2023/07/19 01:11:18;;;;;;;15.57;4.97;;;18.90;99.90;;;;;;4936129;29;20206;-75
2023/07/19 01:13:53;;;;;;;8.63;4.63;;;18.90;99.90;;;;;;4936127;29;20183;-77
2023/07/19 01:16:19;;;;;;;10.13;4.60;;;18.90;99.90;;;;;;4936194;29;20246;-75
2023/07/19 01:18:45;;;;;;;7.28;4.10;;;18.90;99.90;;;;;;4936050;29;20195;-76
2023/07/19 01:21:11;;;;;;;9.57;5.53;;;18.90;99.90;;;;;;4935862;29;20187;-76
2023/07/19 01:23:37;;;;;;;6.85;4.82;;;18.90;99.90;;;;;;4935935;29;20593;-76
2023/07/19 01:26:03;;;;;;;10.38;4.60;;;18.80;99.90;;;;;;4936871;29;20179;-77
2023/07/19 01:28:29;;;;;;;13.27;4.95;;;18.80;99.90;;;;;;4920028;29;20698;-77
2023/07/19 01:30:55;;;;;;;12.20;5.38;;;18.80;99.90;;;;;;4940543;29;20180;-75
2023/07/19 01:33:22;;;;;;;7.20;4.80;;;18.80;99.90;;;;;;4940401;29;20187;-78
2023/07/19 01:35:48;;;;;;;12.38;5.13;;;18.80;99.90;;;;;;4937873;29;20227;-76
2023/07/19 01:38:14;;;;;;;11.00;4.93;;;18.80;99.90;;;;;;4940596;29;20195;-77
2023/07/19 01:40:39;;;;;;;10.57;5.18;;;18.80;99.90;;;;;;4940983;29;20187;-78
2023/07/19 01:43:05;;;;;;;8.23;5.47;;;18.80;99.90;;;;;;4938917;29;20624;-77
2023/07/19 01:45:31;;;;;;;11.85;5.30;;;18.80;99.90;;;;;;4939166;29;20187;-76
2023/07/19 01:47:57;;;;;;;7.70;5.00;;;18.80;99.90;;;;;;4939653;28;20214;-77
2023/07/19 01:50:22;;;;;;;15.43;5.63;;;18.80;99.90;;;;;;4939661;29;20270;-79
2023/07/19 01:52:49;;;;;;;10.45;5.50;;;18.80;99.90;;;;;;4938215;29;20203;-75
2023/07/19 01:55:14;;;;;;;13.55;5.85;;;18.80;99.90;;;;;;4940627;29;20270;-76
2023/07/19 01:57:40;;;;;;;7.97;6.15;;;18.80;99.90;;;;;;4935930;29;20211;-77
2023/07/19 02:00:08;;;;;;;9.80;5.60;;;18.70;99.90;;;;;;4936902;29;20179;-76
2023/07/19 02:02:42;;;;;;;18.83;6.40;;;18.70;99.90;;;;;;4937350;29;20541;-76
2023/07/19 02:05:08;;;;;;;12.93;6.25;;;18.70;99.90;;;;;;4935662;29;20191;-80
2023/07/19 02:07:34;;;;;;;10.07;5.35;;;18.70;99.90;;;;;;4934964;29;20230;-76
2023/07/19 02:10:01;;;;;;;8.98;5.35;;;18.70;99.90;;;;;;4935613;29;20179;-78
2023/07/19 02:12:27;;;;;;;7.75;5.28;;;18.70;99.90;;;;;;4936784;29;20192;-77
2023/07/19 02:14:55;;;;;;;9.85;5.38;;;18.80;99.90;;;;;;4922117;29;20183;-77
2023/07/19 02:17:21;;;;;;;10.00;5.38;;;18.70;99.90;;;;;;4940527;29;20237;-76
2023/07/19 02:19:47;;;;;;;9.32;5.38;;;18.70;99.90;;;;;;4939587;28;20197;-76
2023/07/19 02:22:17;;;;;;;7.38;5.10;;;18.70;99.90;;;;;;4938554;29;20187;-76
2023/07/19 02:24:43;;;;;;;8.13;4.93;;;18.70;99.90;;;;;;4940244;29;20279;-76
2023/07/19 02:27:09;;;;;;;13.68;5.38;;;18.70;99.90;;;;;;4939777;29;20215;-77
2023/07/19 02:29:34;;;;;;;8.63;5.20;;;18.60;99.90;;;;;;4938638;29;20636;-76
2023/07/19 02:32:00;;;;;;;8.70;4.88;;;18.60;99.90;;;;;;4938328;29;20266;-75
2023/07/19 02:34:26;;;;;;;10.23;5.40;;;18.60;99.90;;;;;;4939759;29;20188;-75
2023/07/19 02:36:52;;;;;;;9.25;5.20;;;18.60;99.90;;;;;;4939730;29;20233;-75
2023/07/19 02:39:20;;;;;;;8.35;5.03;;;18.60;99.90;;;;;;4938530;29;20179;-76
2023/07/19 02:41:46;;;;;;;8.43;5.47;;;18.60;99.90;;;;;;4939604;29;20187;-75
2023/07/19 02:44:11;;;;;;;7.75;4.60;;;18.60;99.90;;;;;;4938397;29;20190;-75
2023/07/19 02:46:38;;;;;;;9.80;4.78;;;18.70;99.90;;;;;;4938314;29;20179;-75
2023/07/19 02:49:04;;;;;;;7.68;4.32;;;18.70;99.90;;;;;;4939838;29;20563;-75
2023/07/19 02:51:30;;;;;;;7.45;4.47;;;18.70;99.90;;;;;;4938088;29;20219;-74
2023/07/19 02:53:55;;;;;;;9.65;4.75;;;18.60;99.90;;;;;;4938081;29;20191;-74
2023/07/19 02:56:22;;;;;;;8.25;4.97;;;18.60;99.90;;;;;;4938053;29;20192;-76
2023/07/19 02:58:48;;;;;;;8.05;4.95;;;18.60;99.90;;;;;;4937794;29;20195;-74
2023/07/19 03:01:16;;;;;;;8.60;4.90;;;18.60;99.90;;;;;;4938833;29;20179;-74
2023/07/19 03:03:42;;;;;;;10.68;4.97;;;18.70;99.90;;;;;;4922054;29;20176;-75
2023/07/19 03:06:11;;;;;;;12.65;4.93;;;18.60;99.90;;;;;;4939098;29;20205;-75
2023/07/19 03:08:37;;;;;;;9.32;4.68;;;18.60;99.90;;;;;;4938920;29;20214;-76
2023/07/19 03:11:05;;;;;;;9.48;5.45;;;18.60;99.90;;;;;;4938971;29;20180;-74
2023/07/19 03:13:31;;;;;;;7.63;5.25;;;18.60;99.90;;;;;;4939105;29;20270;-77
2023/07/19 03:15:57;;;;;;;9.52;5.30;;;18.60;99.90;;;;;;4922033;29;20219;-75
2023/07/19 03:18:23;;;;;;;7.07;4.75;;;18.50;99.90;;;;;;4937730;29;20194;-78
2023/07/19 03:20:59;;;;;;;9.25;4.97;;;18.60;99.90;;;;;;4921754;29;20188;-75
2023/07/19 03:23:26;;;;;;;7.35;4.72;;;18.50;99.90;;;;;;4937422;29;20187;-75
2023/07/19 03:25:57;;;;;;;8.18;5.03;;;18.50;99.90;;;;;;4921641;29;20603;-76
2023/07/19 03:28:24;;;;;;;7.82;4.72;;;18.50;99.90;;;;;;4937496;29;20222;-77
2023/07/19 03:30:54;;;;;;;9.63;5.65;;;18.50;99.90;;;;;;4937169;29;20201;-76
2023/07/19 03:33:23;;;;;;;9.57;5.43;;;18.50;99.90;;;;;;4907568;29;20620;-76
2023/07/19 03:35:51;;;;;;;9.07;5.65;;;18.50;99.90;;;;;;4937070;28;20227;-76
2023/07/19 03:38:21;;;;;;;7.70;5.57;;;18.50;99.90;;;;;;4937023;29;20241;-76
2023/07/19 03:40:48;;;;;;;8.43;5.82;;;18.50;99.90;;;;;;4937818;29;20535;-76
2023/07/19 03:43:15;;;;;;;10.23;5.85;;;18.50;99.90;;;;;;4937092;29;20191;-76
2023/07/19 03:45:41;;;;;;;10.57;6.03;;;18.50;99.90;;;;;;4921527;29;20301;-76
2023/07/19 03:48:07;;;;;;;9.45;6.40;;;18.50;99.90;;;;;;4937001;29;20216;-76
2023/07/19 03:50:34;;;;;;;9.05;5.85;;;18.50;99.90;;;;;;4937029;28;20188;-78
2023/07/19 03:53:01;;;;;;;9.73;6.45;;;18.40;99.90;;;;;;4937444;29;20653;-76
2023/07/19 03:55:27;;;;;;;8.52;6.40;;;18.40;99.90;;;;;;4937698;29;20183;-78
2023/07/19 03:57:54;;;;;;;10.65;6.10;;;18.40;99.90;;;;;;4936772;29;20238;-77
2023/07/19 04:00:20;;;;;;;10.75;6.45;;;18.40;99.90;;;;;;4936862;29;20191;-79
2023/07/19 04:02:48;;;;;;;9.02;6.68;;;18.40;99.90;;;;;;4921162;29;20583;-76
2023/07/19 04:05:16;;;;;;;12.07;6.93;;;18.40;99.90;;;;;;4921001;29;20202;-76
2023/07/19 04:07:42;;;;;;;11.45;7.05;;;18.40;99.90;;;;;;4937282;28;20318;-76
2023/07/19 04:10:08;;;;;;;14.13;8.05;;;18.40;99.90;;;;;;4937106;29;20218;-76
2023/07/19 04:12:34;;;;;;;11.27;7.20;;;18.40;99.90;;;;;;4936265;29;20206;-76
2023/07/19 04:15:01;;;;;;;10.50;7.15;;;18.30;99.90;;;;;;4936641;29;20183;-77
2023/07/19 04:17:27;;;;;;;9.10;7.35;;;18.30;99.90;;;;;;4920671;29;20192;-75
2023/07/19 04:19:54;;;;;;;10.05;7.03;;;18.30;99.90;;;;;;4920901;29;20274;-75
2023/07/19 04:22:20;;;;;;;11.13;7.47;;;18.30;99.90;;;;;;4920827;29;20180;-75
2023/07/19 04:24:46;;;;;;;11.93;7.43;;;18.30;99.90;;;;;;4937072;28;20179;-75
2023/07/19 04:27:12;;;;;;;9.23;6.85;;;18.30;99.90;;;;;;4936336;28;20188;-74
2023/07/19 04:29:38;;;;;;;12.23;7.45;;;18.30;99.90;;;;;;4936451;29;20464;-76
2023/07/19 04:32:04;;;;;;;10.27;6.63;;;18.40;99.90;;;;;;4936287;29;20195;-77
2023/07/19 04:34:30;;;;;;;13.77;7.47;;;18.40;99.90;;;;;;4920224;29;20631;-75
2023/07/19 04:36:56;;;;;;;9.40;7.38;;;18.40;99.90;;;;;;4935790;29;20608;-76
2023/07/19 04:39:22;;;;;;;14.68;6.88;;;18.40;99.90;;;;;;4920298;29;20231;-75
2023/07/19 04:41:48;;;;;;;13.90;7.60;;;18.40;99.90;;;;;;4936346;29;20230;-75
2023/07/19 04:44:16;;;;;;;10.60;6.78;;;18.40;99.90;;;;;;4936031;29;20664;-77
2023/07/19 04:46:42;;;;;;;10.48;6.68;;;18.40;99.90;;;;;;4937652;29;20219;-79
2023/07/19 04:49:08;;;;;;;10.55;7.20;;;18.40;99.90;;;;;;4935480;29;20664;-76
2023/07/19 04:51:34;;;;;;;16.60;7.20;;;18.40;99.90;;;;;;4919959;29;20180;-76
2023/07/19 04:54:00;;;;;;;10.98;7.45;;;18.40;99.90;;;;;;4936929;29;20187;-76
2023/07/19 04:56:27;;;;;;;9.77;6.78;;;18.40;99.90;;;;;;4935296;28;20184;-77
2023/07/19 04:58:54;;;;;;;16.27;7.45;;;18.30;99.90;;;;;;4935355;29;20316;-76
2023/07/19 05:01:20;;;;;;;8.80;6.15;;;18.40;99.90;;;;;;4919526;29;20183;-77
2023/07/19 05:03:46;;;;;;;13.70;7.38;;;18.30;99.90;;;;;;4935972;29;20231;-78
2023/07/19 05:06:12;;;;;;;15.82;6.50;;;18.30;99.90;;;;;;4938229;29;20176;-75
2023/07/19 05:08:37;;;;;;;9.18;7.03;;;18.30;99.90;;;;;;4939329;29;20575;-76
2023/07/19 05:11:04;;;;;;;10.70;6.90;;;18.30;99.90;;;;;;4939298;29;20209;-76
2023/07/19 05:13:30;;;;;;;12.93;6.80;;;18.30;99.90;;;;;;4937071;29;20194;-79
2023/07/19 05:15:56;;;;;;;10.75;6.57;;;18.30;99.90;;;;;;4920834;29;20188;-80
2023/07/19 05:18:23;;;;;;;10.85;6.28;;;18.30;99.90;;;;;;4936116;29;20191;-77
2023/07/19 05:20:49;;;;;;;9.90;5.18;;;18.30;99.90;;;;;;4935602;28;20559;-77
2023/07/19 05:23:15;;;;;;;7.70;4.90;;;18.20;99.90;;;;;;4936463;29;20194;-77
2023/07/19 05:25:41;;;;;;;8.73;5.20;;;18.30;99.90;;;;;;4920538;29;20253;-77
2023/07/19 05:28:06;;;;;;;10.90;5.07;;;18.30;99.90;;;;;;4920313;29;20601;-79
2023/07/19 05:30:32;;;;;;;7.80;4.68;;;18.30;99.90;;;;;;4938258;29;20196;-78
2023/07/19 05:32:58;;;;;;;12.15;4.75;;;18.30;99.90;;;;;;4936114;29;20231;-76
2023/07/19 05:35:24;;;;;;;10.98;4.85;;;18.30;99.90;;;;;;4935907;29;20235;-75
2023/07/19 05:37:50;;;;;;;8.82;5.05;;;18.30;99.90;;;;;;4936107;29;20199;-75
2023/07/19 05:40:17;;;;;;;7.57;4.80;;;18.40;99.90;;;;;;4935984;29;20183;-77
2023/07/19 05:42:42;;;;;;;12.18;5.35;;;18.30;99.90;;;;;;4919307;29;20624;-76
2023/07/19 05:45:08;;;;;;;8.27;5.07;;;18.40;99.90;;;;;;4934981;29;20179;-77
2023/07/19 05:47:34;;;;;;;8.52;5.45;;;18.40;99.90;;;;;;4935708;29;20211;-75
2023/07/19 05:50:00;;;;;;;8.65;5.22;;;18.40;99.90;;;;;;4935563;29;20184;-76
2023/07/19 05:52:28;;;;;;;11.90;5.32;;;18.40;99.90;;;;;;4936463;29;20187;-76
2023/07/19 05:54:54;;;;;;;10.80;5.30;;;18.40;99.90;;;;;;4935481;29;20175;-74
2023/07/19 05:57:20;;;;;;;14.45;5.30;;;18.40;99.90;;;;;;4935912;29;20281;-75
2023/07/19 05:59:46;;;;;;;12.63;5.15;;;18.40;99.90;;;;;;4934860;29;20191;-78
2023/07/19 06:02:12;;;;;;;7.40;5.00;;;18.40;99.90;;;;;;4935712;29;20243;-76
2023/07/19 06:04:38;;;;;;;15.95;4.97;;;18.40;99.90;;;;;;4934705;29;20189;-75
2023/07/19 06:07:04;;;;;;;11.07;5.47;;;18.40;99.90;;;;;;4936018;29;20262;-76
2023/07/19 06:09:30;;;;;;;9.70;4.78;;;18.40;99.90;;;;;;4936668;29;20206;-75
2023/07/19 06:11:57;;;;;;;12.93;4.93;;;18.40;99.90;;;;;;4935882;29;20183;-75
2023/07/19 06:14:23;;;;;;;12.88;4.90;;;18.40;99.90;;;;;;4934985;29;20175;-77
2023/07/19 06:16:49;;;;;;;11.02;4.78;;;18.40;99.90;;;;;;4935524;29;20643;-74
2023/07/19 06:19:16;;;;;;;8.05;4.05;;;18.40;99.90;;;;;;4936211;29;20412;-75
2023/07/19 06:21:42;;;;;;;5.30;3.72;;;18.40;99.90;;;;;;4934924;29;20541;-77
2023/07/19 06:24:07;;;;;;;11.27;3.60;;;18.40;99.90;;;;;;4935543;29;20183;-76
2023/07/19 06:26:33;;;;;;;7.13;3.15;;;18.30;99.90;;;;;;4934547;29;20183;-75
2023/07/19 06:28:59;;;;;;;10.20;3.47;;;18.20;99.90;;;;;;4918370;29;20293;-75
2023/07/19 06:31:25;;;;;;;7.22;3.35;;;18.30;99.90;;;;;;4935868;29;20747;-75
2023/07/19 06:33:51;;;;;;;6.22;3.33;;;18.20;99.90;;;;;;4934803;29;20270;-74
2023/07/19 06:36:16;;;;;;;7.85;2.95;;;18.20;99.90;;;;;;4935278;29;20238;-74
2023/07/19 06:38:42;;;;;;;5.85;3.20;;;18.10;99.90;;;;;;4935552;29;20258;-76
2023/07/19 06:41:08;;;;;;;9.10;3.15;;;18.10;99.90;;;;;;4935486;29;20180;-75
2023/07/19 06:43:34;;;;;;;10.85;2.92;;;18.10;99.90;;;;;;4934581;29;20629;-77
2023/07/19 06:46:00;;;;;;;5.38;2.45;;;18.20;99.90;;;;;;4935580;29;20286;-78
2023/07/19 06:48:26;;;;;;;5.50;2.60;;;18.10;99.90;;;;;;4935436;29;20308;-75
2023/07/19 06:50:51;;;;;;;8.82;3.00;;;18.10;99.90;;;;;;4935860;29;20180;-75
2023/07/19 06:53:17;;;;;;;9.43;3.00;;;18.20;99.90;;;;;;4935546;29;20278;-76
2023/07/19 06:55:44;;;;;;;8.45;2.72;;;18.20;99.90;;;;;;4935940;29;20179;-75
2023/07/19 06:58:09;;;;;;;4.97;2.90;;;18.20;99.90;;;;;;4936036;29;20179;-75
2023/07/19 07:00:35;;;;;;;6.25;2.90;;;18.20;99.90;;;;;;4937271;29;20268;-75
2023/07/19 07:03:03;;;;;;;7.72;2.97;;;18.20;99.90;;;;;;4937862;29;20191;-75
2023/07/19 07:05:29;;;;;;;11.77;3.20;;;18.30;99.90;;;;;;4938978;29;20175;-76
2023/07/19 07:07:55;;;;;;;10.75;3.60;;;18.30;99.90;;;;;;4939007;29;20648;-77
2023/07/19 07:10:21;;;;;;;8.00;3.00;;;18.30;99.90;;;;;;4922064;29;20187;-76
2023/07/19 07:12:47;;;;;;;8.23;3.05;;;18.30;99.90;;;;;;4921934;29;20191;-76
2023/07/19 07:15:13;;;;;;;10.52;3.30;;;18.30;99.90;;;;;;4937822;29;20206;-76
2023/07/19 07:17:40;;;;;;;9.00;3.42;;;18.30;99.90;;;;;;4939805;29;20187;-77
2023/07/19 07:20:07;;;;;;;8.20;3.40;;;18.40;99.90;;;;;;4938714;29;20599;-76
2023/07/19 07:22:33;;;;;;;12.88;3.58;;;18.40;99.90;;;;;;4921735;29;20190;-76
2023/07/19 07:24:59;;;;;;;6.85;3.10;;;18.40;99.90;;;;;;4939499;29;20567;-76
2023/07/19 07:27:27;;;;;;;9.18;2.90;;;18.50;99.90;;;;;;4938826;29;20730;-76
2023/07/19 07:29:53;;;;;;;7.90;2.70;;;18.60;99.90;;;;;;4938957;29;20184;-78
2023/07/19 07:32:19;;;;;;;7.40;2.53;;;18.60;99.90;;;;;;4938664;29;20190;-76
2023/07/19 07:34:45;;;;;;;7.75;2.85;;;18.60;99.90;;;;;;4938006;29;20242;-80
2023/07/19 07:37:11;;;;;;;8.90;2.80;;;18.60;99.90;;;;;;4937406;29;20623;-78
2023/07/19 07:39:37;;;;;;;6.82;2.53;;;18.70;99.90;;;;;;4937439;29;20249;-78
2023/07/19 07:42:03;;;;;;;7.75;3.15;;;18.70;99.90;;;;;;4938763;29;20187;-78
2023/07/19 07:44:29;;;;;;;9.30;2.50;;;18.70;99.90;;;;;;4937374;29;20183;-77
2023/07/19 07:46:54;;;;;;;5.75;2.78;;;18.70;99.90;;;;;;4937435;29;20609;-78
2023/07/19 07:49:20;;;;;;;7.72;2.60;;;18.80;99.90;;;;;;4938430;29;20235;-75
2023/07/19 07:51:46;;;;;;;7.10;2.92;;;18.80;99.90;;;;;;4938711;29;20192;-74
2023/07/19 07:54:12;;;;;;;4.97;2.60;;;18.90;99.90;;;;;;4936709;29;20222;-76
2023/07/19 07:56:37;;;;;;;9.43;2.90;;;18.90;99.90;;;;;;4938031;29;20626;-76
2023/07/19 07:59:03;;;;;;;5.55;2.30;;;18.90;99.90;;;;;;4937713;29;20255;-76
2023/07/19 08:01:29;;;;;;;4.53;2.13;;;19.00;99.90;;;;;;4938464;29;20186;-78
2023/07/19 08:03:55;;;;;;;6.65;2.30;;;19.00;99.90;;;;;;4938356;29;20188;-77
2023/07/19 08:06:21;;;;;;;8.70;2.15;;;19.10;99.90;;;;;;4937851;29;20188;-76
2023/07/19 08:08:46;;;;;;;8.30;2.35;;;19.10;99.90;;;;;;4937937;29;20262;-77
2023/07/19 08:11:12;;;;;;;4.60;2.22;;;19.20;99.90;;;;;;4920036;29;20180;-75
2023/07/19 08:13:38;;;;;;;7.78;2.20;;;19.20;99.90;;;;;;4937556;29;20180;-75
2023/07/19 08:16:07;;;;;;;9.82;2.10;;;19.20;99.90;;;;;;4936913;29;20265;-74
2023/07/19 08:18:36;;;;;;;5.60;1.77;;;19.30;99.90;;;;;;4937520;29;20190;-77
2023/07/19 08:21:02;;;;;;;6.32;2.10;;;19.40;99.90;;;;;;4936431;29;20199;-75
2023/07/19 08:23:28;;;;;;;8.60;2.20;;;19.40;99.90;;;;;;4920678;29;20188;-75
2023/07/19 08:25:57;;;;;;;4.03;1.67;;;19.60;99.90;;;;;;4936357;29;20186;-75
2023/07/19 08:28:27;;;;;;;4.80;1.98;;;19.70;99.90;;;;;;4936115;29;20274;-76
2023/07/19 08:30:53;;;;;;;5.40;2.20;;;19.80;99.90;;;;;;4936189;29;20214;-74
2023/07/19 08:33:21;;;;;;;6.10;1.95;;;19.80;99.90;;;;;;4937502;29;20651;-75
2023/07/19 08:35:47;;;;;;;5.90;2.00;;;20.00;99.90;;;;;;4919703;29;20271;-75
2023/07/19 08:38:14;;;;;;;7.10;2.15;;;20.10;99.90;;;;;;4937234;29;20226;-75
2023/07/19 08:40:40;;;;;;;4.32;1.80;;;20.20;99.90;;;;;;4936520;29;20219;-76
2023/07/19 08:43:07;;;;;;;3.05;1.73;;;20.30;99.90;;;;;;4937649;29;20191;-75
2023/07/19 08:45:36;;;;;;;5.45;2.00;;;20.30;99.90;;;;;;4937530;29;20180;-75
2023/07/19 08:48:04;;;;;;;5.05;1.90;;;20.40;99.90;;;;;;4935616;29;20218;-75
2023/07/19 08:50:31;;;;;;;4.28;1.70;;;20.50;99.90;;;;;;4937206;29;20254;-76
2023/07/19 08:53:02;;;;;;;4.45;1.70;;;20.50;99.90;;;;;;4937252;29;20204;-75
2023/07/19 08:55:31;;;;;;;8.85;2.05;;;20.60;99.90;;;;;;4937373;29;20250;-75
2023/07/19 08:57:57;;;;;;;4.72;1.70;;;20.60;99.90;;;;;;4936990;29;20285;-75
2023/07/19 09:00:24;;;;;;;6.50;1.77;;;20.70;99.90;;;;;;4937232;29;20576;-75
2023/07/19 09:02:49;;;;;;;4.57;1.60;;;20.80;99.90;;;;;;4936708;29;20199;-75
2023/07/19 09:05:15;;;;;;;6.07;1.65;;;20.80;99.90;;;;;;4937847;29;20531;-81
2023/07/19 09:07:41;;;;;;;6.43;1.55;;;20.80;99.90;;;;;;4937314;29;20683;-75
2023/07/19 09:10:09;;;;;;;3.55;1.40;;;20.80;99.90;;;;;;4919783;29;20640;-75
2023/07/19 09:12:37;;;;;;;5.20;1.67;;;20.80;99.90;;;;;;4935871;29;20179;-78
2023/07/19 09:15:04;;;;;;;8.05;1.98;;;20.80;99.90;;;;;;4937297;29;20179;-78
2023/07/19 09:17:34;;;;;;;7.35;2.00;;;20.80;99.90;;;;;;4936778;29;20185;-77
2023/07/19 09:19:59;;;;;;;6.65;1.83;;;20.70;99.90;;;;;;4935538;29;20186;-79
2023/07/19 09:22:28;;;;;;;178.63;139.73;;;20.70;99.90;;;;;;4936334;29;20183;-78
2023/07/19 09:25:01;;;;;;;7.22;3.80;;;20.70;99.90;;;;;;4936584;29;20186;-75
2023/07/19 09:27:27;;;;;;;10.27;3.08;;;20.70;99.90;;;;;;4935697;29;20193;-76
2023/07/19 09:29:53;;;;;;;6.90;2.45;;;20.60;99.90;;;;;;4936313;29;20175;-76
2023/07/19 09:32:19;;;;;;;4.25;2.40;;;20.70;99.90;;;;;;4936821;29;20711;-84
2023/07/19 09:34:45;;;;;;;7.05;1.92;;;20.70;99.90;;;;;;4903833;29;20315;-83
2023/07/19 09:37:11;;;;;;;5.35;2.13;;;20.70;99.90;;;;;;4920428;29;20191;-83
2023/07/19 09:39:37;;;;;;;5.22;2.40;;;20.70;99.90;;;;;;4936127;29;20183;-82
2023/07/19 09:42:04;;;;;;;5.13;2.20;;;20.70;99.90;;;;;;4935665;28;20214;-83
2023/07/19 09:44:33;;;;;;;7.35;2.20;;;20.70;99.90;;;;;;4935661;29;20193;-83
2023/07/19 09:47:01;;;;;;;7.90;1.80;;;20.70;99.90;;;;;;4936233;29;20175;-84
2023/07/19 09:49:26;;;;;;;6.53;2.08;;;20.80;99.90;;;;;;4919518;29;20343;-76
2023/07/19 09:51:55;;;;;;;4.35;1.85;;;20.80;99.90;;;;;;4936185;29;20594;-75
2023/07/19 09:54:24;;;;;;;4.28;1.75;;;20.80;99.90;;;;;;4936022;29;20218;-75
2023/07/19 09:56:50;;;;;;;8.23;1.88;;;20.80;99.90;;;;;;4935031;29;20183;-77
2023/07/19 09:59:25;;;;;;;3.63;1.60;;;20.80;99.90;;;;;;4936127;29;20204;-76
2023/07/19 10:01:51;;;;;;;6.00;2.05;;;20.90;99.90;;;;;;4936909;29;20526;-75
2023/07/19 10:04:25;;;;;;;6.45;2.25;;;20.90;99.90;;;;;;4935494;29;20206;-76
2023/07/19 10:07:25;;;;;;;3.75;1.85;;;21.00;99.90;;;;;;4936476;29;20218;-76
2023/07/19 10:10:04;;;;;;;6.35;2.10;;;21.00;99.90;;;;;;4936255;29;20655;-76
2023/07/19 10:12:31;;;;;;;3.65;1.80;;;21.20;99.90;;;;;;4936377;29;20167;-76
2023/07/19 10:15:02;;;;;;;24.15;14.18;;;21.20;99.90;;;;;;4935729;29;20211;-77
2023/07/19 10:17:38;;;;;;;5.78;2.40;;;21.30;99.90;;;;;;4935965;29;20188;-76
2023/07/19 10:20:03;;;;;;;5.40;2.13;;;21.40;99.90;;;;;;4935481;29;20262;-77
2023/07/19 10:23:16;;;;;;;4.32;2.45;;;21.40;99.90;;;;;;4936030;29;20211;-76
2023/07/19 10:25:51;;;;;;;4.20;1.45;;;21.40;99.90;;;;;;4923123;29;20290;-76
2023/07/19 10:28:29;;;;;;;6.20;1.80;;;21.40;99.90;;;;;;4936021;29;20290;-77
2023/07/19 10:30:57;;;;;;;10.05;5.88;;;21.40;99.90;;;;;;4936644;29;20262;-76
2023/07/19 10:33:30;;;;;;;6.50;4.13;;;21.40;99.90;;;;;;4935547;29;20558;-76
2023/07/19 10:36:06;;;;;;;7.15;1.98;;;21.40;99.90;;;;;;4937065;29;20230;-76
2023/07/19 10:38:32;;;;;;;5.10;2.05;;;21.40;99.90;;;;;;4939892;29;20629;-76
2023/07/19 10:41:03;;;;;;;5.80;1.50;;;21.50;99.90;;;;;;4939250;29;20179;-76
2023/07/19 10:43:34;;;;;;;10.18;1.85;;;21.50;99.90;;;;;;4939812;29;20187;-77
2023/07/19 10:46:03;;;;;;;4.50;1.70;;;21.50;99.90;;;;;;4939205;29;20271;-76
2023/07/19 10:48:38;;;;;;;4.03;1.73;;;21.50;99.90;;;;;;4939047;29;20747;-76
2023/07/19 10:51:06;;;;;;;3.00;1.60;;;21.50;99.90;;;;;;4939652;29;20223;-76
2023/07/19 10:53:43;;;;;;;4.15;1.70;;;21.50;99.90;;;;;;4939257;29;20176;-77
2023/07/19 10:56:09;;;;;;;3.88;1.67;;;21.50;99.90;;;;;;4939219;29;20174;-76
2023/07/19 10:58:35;;;;;;;5.55;1.52;;;21.50;99.90;;;;;;4938941;29;20179;-76
2023/07/19 11:01:02;;;;;;;4.45;1.40;;;21.60;99.90;;;;;;4939118;29;20262;-77
2023/07/19 11:03:28;;;;;;;4.60;1.60;;;21.60;99.90;;;;;;4938898;29;20175;-76
2023/07/19 11:05:54;;;;;;;4.20;1.65;;;21.70;99.90;;;;;;4937961;29;20760;-76
2023/07/19 11:08:28;;;;;;;3.25;1.80;;;21.80;99.90;;;;;;4922007;29;20584;-76
2023/07/19 11:10:56;;;;;;;2.15;1.40;;;21.80;99.90;;;;;;4938174;29;20163;-75
2023/07/19 11:13:24;;;;;;;1.70;1.00;;;21.90;99.90;;;;;;4938023;29;20179;-77
2023/07/19 11:15:53;;;;;;;5.95;1.80;;;21.90;99.90;;;;;;4937858;29;20222;-75
2023/07/19 11:18:27;;;;;;;4.32;1.65;;;22.00;99.90;;;;;;4938559;29;20179;-76
2023/07/19 11:20:54;;;;;;;3.80;1.23;;;22.00;99.90;;;;;;4938613;29;20246;-77
2023/07/19 11:23:20;;;;;;;4.80;1.30;;;22.00;99.90;;;;;;4938366;29;20179;-78
2023/07/19 11:25:47;;;;;;;3.03;1.20;;;22.10;99.90;;;;;;4937863;29;20187;-78
2023/07/19 11:28:13;;;;;;;3.80;2.10;;;22.10;99.90;;;;;;4938970;29;20211;-76
2023/07/19 11:30:40;;;;;;;7.85;1.40;;;22.20;99.90;;;;;;4938876;29;20202;-76
2023/07/19 11:33:09;;;;;;;5.00;1.35;;;22.30;99.90;;;;;;4938926;29;20628;-78
2023/07/19 11:35:36;;;;;;;2.63;1.55;;;22.30;99.90;;;;;;4938221;29;20231;-78
2023/07/19 11:38:02;;;;;;;3.33;1.83;;;22.40;99.90;;;;;;4921788;29;20195;-77
2023/07/19 11:40:28;;;;;;;3.15;1.80;;;22.50;99.90;;;;;;4938578;28;20183;-76
2023/07/19 11:42:58;;;;;;;4.78;1.05;;;22.50;99.90;;;;;;4938677;29;20238;-77
2023/07/19 11:45:28;;;;;;;4.78;1.23;;;22.60;99.90;;;;;;4938119;29;20266;-79
2023/07/19 11:48:02;;;;;;;3.30;1.20;;;22.70;99.90;;;;;;4937306;29;20211;-78
2023/07/19 11:50:29;;;;;;;4.30;1.27;;;22.70;99.90;;;;;;4938176;29;20254;-79
2023/07/19 11:52:57;;;;;;;2.72;1.20;;;22.80;99.90;;;;;;4937893;29;20238;-78
2023/07/19 11:55:24;;;;;;;2.17;1.13;;;22.80;99.90;;;;;;4937043;29;20576;-76
2023/07/19 11:57:52;;;;;;;4.40;1.60;;;22.80;99.90;;;;;;4937520;29;20183;-75
2023/07/19 12:00:22;;;;;;;3.80;1.60;;;22.90;99.90;;;;;;4937891;29;20186;-76
2023/07/19 12:02:49;;;;;;;3.67;1.60;;;22.90;99.90;;;;;;4938407;29;20172;-76
2023/07/19 12:05:21;;;;;;;25.98;19.10;;;22.80;99.90;;;;;;4936625;29;20194;-75
2023/07/19 12:07:49;;;;;;;5.53;1.50;;;22.90;99.90;;;;;;4937723;29;20238;-76
2023/07/19 12:10:15;;;;;;;3.28;1.10;;;22.90;99.90;;;;;;4937625;29;20194;-78
2023/07/19 12:12:41;;;;;;;4.15;1.00;;;22.90;99.90;;;;;;4937520;29;20183;-76
2023/07/19 12:15:09;;;;;;;3.13;1.20;;;23.00;99.90;;;;;;4937381;29;20663;-75
2023/07/19 12:17:36;;;;;;;3.55;1.50;;;23.00;99.60;;;;;;4937562;29;20238;-75
2023/07/19 12:20:03;;;;;;;3.88;1.40;;;22.90;99.20;;;;;;4937774;29;20231;-75
2023/07/19 12:22:30;;;;;;;2.85;1.30;;;22.90;99.10;;;;;;4938021;29;20183;-74
2023/07/19 12:24:58;;;;;;;4.97;1.33;;;23.00;98.90;;;;;;4937512;29;20171;-80
2023/07/19 12:27:25;;;;;;;3.42;0.95;;;22.90;98.60;;;;;;4936158;29;20188;-76
2023/07/19 12:29:51;;;;;;;1.50;1.00;;;22.90;98.70;;;;;;4937482;29;20728;-76
2023/07/19 12:32:17;;;;;;;3.85;0.95;;;22.90;98.60;;;;;;4937429;29;20191;-76
2023/07/19 12:34:46;;;;;;;4.53;1.20;;;22.90;98.30;;;;;;4937968;29;20235;-77
2023/07/19 12:37:14;;;;;;;4.55;0.90;;;23.00;97.90;;;;;;4938223;29;20314;-76
2023/07/19 12:39:40;;;;;;;3.15;0.90;;;23.00;97.90;;;;;;4937435;29;20218;-76
2023/07/19 12:42:07;;;;;;;4.00;1.55;;;23.00;97.80;;;;;;4937401;29;20215;-76